Time;durP1;ratioP1;P1;durP2;ratioP2;P2;SDS_P1;SDS_P2;PMS_P1;PMS_P2;Temp;Humidity;BMP_temperature;BMP_pressure;BME280_temperature;BME280_humidity;BME280_pressure;Samples;Min_cycle;Max_cycle;Signal;HPM_P1;HPM_P2
2023/04/24 00:00:58;;;;;;;2.85;1.30;;;12.10;99.90;;;;;;4982215;28;20353;-85
2023/04/24 00:03:24;;;;;;;2.35;1.38;;;12.10;99.90;;;;;;4983822;28;20053;-85
2023/04/24 00:05:51;;;;;;;2.15;0.73;;;12.00;99.90;;;;;;4982008;28;20046;-86
2023/04/24 00:08:17;;;;;;;2.22;0.80;;;12.00;99.90;;;;;;4981646;28;20058;-85
2023/04/24 00:10:42;;;;;;;3.08;1.05;;;11.90;99.90;;;;;;4997703;28;20645;-85
2023/04/24 00:13:08;;;;;;;1.88;0.80;;;11.90;99.90;;;;;;4968412;28;20054;-86
2023/04/24 00:15:34;;;;;;;1.83;0.90;;;11.80;99.90;;;;;;4981542;28;20100;-85
2023/04/24 00:18:01;;;;;;;1.45;0.80;;;11.80;99.90;;;;;;4964780;28;20074;-84
2023/04/24 00:20:28;;;;;;;1.27;0.60;;;11.80;99.90;;;;;;4963890;28;20065;-85
2023/04/24 00:22:53;;;;;;;2.40;0.80;;;11.80;99.90;;;;;;4980162;28;20064;-86
2023/04/24 00:25:19;;;;;;;0.70;0.43;;;11.80;99.90;;;;;;4981318;28;20041;-86
2023/04/24 00:27:44;;;;;;;1.15;0.52;;;11.80;99.90;;;;;;4981268;28;20053;-85
2023/04/24 00:30:10;;;;;;;5.72;0.80;;;11.70;99.90;;;;;;4999672;28;20038;-85
2023/04/24 00:32:36;;;;;;;1.10;0.60;;;11.70;99.90;;;;;;4980946;28;20128;-85
2023/04/24 00:35:02;;;;;;;1.80;0.80;;;11.60;99.90;;;;;;4999009;28;20072;-85
2023/04/24 00:37:28;;;;;;;1.58;1.23;;;11.60;99.90;;;;;;4968848;28;20052;-85
2023/04/24 00:39:54;;;;;;;1.25;0.60;;;11.60;99.90;;;;;;4998500;28;20360;-85
2023/04/24 00:42:20;;;;;;;1.67;0.90;;;11.60;99.90;;;;;;4965397;28;20590;-86
2023/04/24 00:44:45;;;;;;;0.75;0.50;;;11.60;99.90;;;;;;4980513;28;20057;-85
2023/04/24 00:47:12;;;;;;;1.60;0.80;;;11.60;99.90;;;;;;4980115;28;20038;-85
2023/04/24 00:49:38;;;;;;;1.40;0.70;;;11.60;99.90;;;;;;4980280;28;20074;-85
2023/04/24 00:52:07;;;;;;;1.58;0.77;;;11.60;99.90;;;;;;4980222;28;20148;-85
2023/04/24 00:54:33;;;;;;;1.27;0.70;;;11.50;99.90;;;;;;4980494;28;20050;-85
2023/04/24 00:56:58;;;;;;;3.03;0.95;;;11.50;99.90;;;;;;4977707;28;20085;-86
2023/04/24 00:59:24;;;;;;;1.88;0.80;;;11.50;99.90;;;;;;4997640;28;20042;-86
2023/04/24 01:01:51;;;;;;;1.95;0.90;;;11.50;99.90;;;;;;4979872;28;20038;-85
2023/04/24 01:04:17;;;;;;;3.70;0.77;;;11.50;99.90;;;;;;4978951;28;20045;-85
2023/04/24 01:06:45;;;;;;;1.27;0.80;;;11.50;99.90;;;;;;4979923;28;20061;-85
2023/04/24 01:09:12;;;;;;;1.73;0.88;;;11.40;99.90;;;;;;4997569;28;20034;-85
2023/04/24 01:11:37;;;;;;;1.70;0.90;;;11.40;99.90;;;;;;4969497;28;20038;-85
2023/04/24 01:14:03;;;;;;;1.52;1.00;;;11.40;99.90;;;;;;4996109;28;20167;-86
2023/04/24 01:16:29;;;;;;;4.20;1.02;;;11.30;99.90;;;;;;4980837;28;20042;-86
2023/04/24 01:18:55;;;;;;;3.03;1.00;;;11.40;99.90;;;;;;4979736;28;20468;-85
2023/04/24 01:21:23;;;;;;;1.58;0.90;;;11.40;99.90;;;;;;4978890;28;20124;-85
2023/04/24 01:23:48;;;;;;;1.67;0.80;;;11.30;99.90;;;;;;4997591;28;20061;-85
2023/04/24 01:26:19;;;;;;;1.73;1.00;;;11.30;99.90;;;;;;4977650;28;20042;-85
2023/04/24 01:28:46;;;;;;;2.08;1.13;;;11.30;99.90;;;;;;4988906;28;20699;-85
2023/04/24 01:31:11;;;;;;;4.10;1.08;;;11.30;99.90;;;;;;4998190;28;20045;-86
2023/04/24 01:33:37;;;;;;;2.22;1.30;;;11.30;99.90;;;;;;4997629;28;20038;-86
2023/04/24 01:36:03;;;;;;;2.38;1.20;;;11.30;99.90;;;;;;4976643;28;20115;-85
2023/04/24 01:38:29;;;;;;;2.10;1.30;;;11.30;99.90;;;;;;4980382;28;20037;-85
2023/04/24 01:40:54;;;;;;;2.38;1.42;;;11.30;99.90;;;;;;4998199;28;20272;-86
2023/04/24 01:43:20;;;;;;;1.60;1.00;;;11.20;99.90;;;;;;4997341;28;20571;-85
2023/04/24 01:45:46;;;;;;;2.97;1.40;;;11.20;99.90;;;;;;4978483;28;20065;-85
2023/04/24 01:48:12;;;;;;;4.25;1.80;;;11.20;99.90;;;;;;4979503;28;20042;-85
2023/04/24 01:50:37;;;;;;;3.13;1.90;;;11.20;99.90;;;;;;4978975;28;20048;-85
2023/04/24 01:53:03;;;;;;;3.03;1.90;;;11.20;99.90;;;;;;4978630;28;20038;-85
2023/04/24 01:55:29;;;;;;;3.00;2.00;;;11.20;99.90;;;;;;4980196;28;20037;-85
2023/04/24 01:57:56;;;;;;;3.40;2.20;;;11.20;99.90;;;;;;4977313;28;20045;-86
2023/04/24 02:00:22;;;;;;;3.63;2.22;;;11.10;99.90;;;;;;4996257;28;20042;-85
2023/04/24 02:02:47;;;;;;;3.58;2.53;;;11.10;99.90;;;;;;4995606;28;20487;-85
2023/04/24 02:05:13;;;;;;;6.05;2.97;;;11.10;99.90;;;;;;4997143;28;20037;-85
2023/04/24 02:07:39;;;;;;;4.97;3.13;;;11.10;99.90;;;;;;4972519;28;20057;-85
2023/04/24 02:10:05;;;;;;;5.13;2.90;;;11.20;99.90;;;;;;4978482;28;20587;-85
2023/04/24 02:12:30;;;;;;;5.40;3.50;;;11.10;99.90;;;;;;4978307;28;20060;-85
2023/04/24 02:14:56;;;;;;;4.25;2.90;;;11.10;99.90;;;;;;4997508;28;20045;-85
2023/04/24 02:17:22;;;;;;;5.18;3.35;;;11.00;99.90;;;;;;4997210;28;20038;-85
2023/04/24 02:19:48;;;;;;;4.28;2.92;;;11.00;99.90;;;;;;4993760;28;20119;-85
2023/04/24 02:22:13;;;;;;;6.57;3.88;;;11.00;99.90;;;;;;4979753;28;20034;-85
2023/04/24 02:24:39;;;;;;;6.78;4.43;;;11.00;99.90;;;;;;4980097;28;20046;-85
2023/04/24 02:27:05;;;;;;;6.43;3.92;;;11.00;99.90;;;;;;4980163;28;20245;-85
2023/04/24 02:29:31;;;;;;;6.97;5.43;;;11.00;99.90;;;;;;4997445;28;20065;-85
2023/04/24 02:31:56;;;;;;;6.57;3.95;;;11.00;99.90;;;;;;4979450;28;20046;-85
2023/04/24 02:34:23;;;;;;;6.40;5.05;;;11.00;99.90;;;;;;4979623;28;20083;-86
2023/04/24 02:36:49;;;;;;;7.60;5.30;;;11.00;99.90;;;;;;4979538;28;20549;-85
2023/04/24 02:39:16;;;;;;;7.20;4.95;;;11.00;99.90;;;;;;4977501;28;20046;-85
2023/04/24 02:41:42;;;;;;;7.85;5.78;;;11.00;99.90;;;;;;4979362;28;20073;-85
2023/04/24 02:44:08;;;;;;;9.38;6.03;;;11.00;99.90;;;;;;4979504;28;20089;-86
2023/04/24 02:46:34;;;;;;;7.68;5.20;;;11.00;99.90;;;;;;4977303;28;20124;-86
2023/04/24 02:48:59;;;;;;;6.82;4.93;;;10.90;99.90;;;;;;4979421;28;20034;-86
2023/04/24 02:51:25;;;;;;;7.20;5.00;;;10.90;99.90;;;;;;4997744;28;20042;-86
2023/04/24 02:53:50;;;;;;;8.35;5.93;;;10.90;99.90;;;;;;4979824;28;20054;-86
2023/04/24 02:56:16;;;;;;;8.80;5.78;;;10.90;99.90;;;;;;4979960;28;20046;-85
2023/04/24 02:58:42;;;;;;;6.93;5.75;;;10.80;99.90;;;;;;4979669;28;20095;-87
2023/04/24 03:01:09;;;;;;;7.07;5.68;;;10.80;99.90;;;;;;4978167;28;20683;-86
2023/04/24 03:03:35;;;;;;;8.27;7.25;;;10.80;99.90;;;;;;4981712;28;20407;-86
2023/04/24 03:06:01;;;;;;;9.30;7.43;;;10.80;99.90;;;;;;4962846;28;20361;-86
2023/04/24 03:08:27;;;;;;;8.23;7.13;;;11.00;99.90;;;;;;4973936;28;20053;-86
2023/04/24 03:10:52;;;;;;;10.77;8.93;;;10.60;99.90;;;;;;4980438;28;20037;-86
2023/04/24 03:13:18;;;;;;;10.15;9.15;;;10.80;99.90;;;;;;4982642;28;20169;-85
2023/04/24 03:15:44;;;;;;;7.97;7.15;;;10.80;99.90;;;;;;4980930;28;20058;-85
2023/04/24 03:18:10;;;;;;;8.48;7.20;;;10.80;99.90;;;;;;4981994;28;20049;-86
2023/04/24 03:20:37;;;;;;;8.93;7.32;;;10.80;99.90;;;;;;4982685;28;20034;-85
2023/04/24 03:23:03;;;;;;;8.25;7.45;;;10.80;99.90;;;;;;4982846;28;20046;-85
2023/04/24 03:25:28;;;;;;;8.48;7.40;;;10.80;99.90;;;;;;4980625;28;20041;-85
2023/04/24 03:27:54;;;;;;;8.68;7.10;;;10.70;99.90;;;;;;4982038;28;20045;-86
2023/04/24 03:30:20;;;;;;;7.93;6.80;;;10.70;99.90;;;;;;4999732;28;20038;-86
2023/04/24 03:32:46;;;;;;;7.40;6.25;;;10.70;99.90;;;;;;4981199;28;20056;-85
2023/04/24 03:35:11;;;;;;;7.68;5.82;;;10.70;99.90;;;;;;4979631;28;20042;-86
2023/04/24 03:37:37;;;;;;;7.07;6.38;;;10.70;99.90;;;;;;4980985;28;20069;-86
2023/04/24 03:40:03;;;;;;;8.38;6.78;;;10.70;99.90;;;;;;5000897;28;20762;-86
2023/04/24 03:42:28;;;;;;;7.03;6.28;;;10.60;99.90;;;;;;4981399;28;20041;-85
2023/04/24 03:44:54;;;;;;;7.90;5.78;;;10.70;99.90;;;;;;4968021;28;20092;-85
2023/04/24 03:47:20;;;;;;;6.70;5.22;;;10.60;99.90;;;;;;5000169;28;20044;-85
2023/04/24 03:49:45;;;;;;;9.32;6.03;;;10.60;99.90;;;;;;4978951;28;20502;-85
2023/04/24 03:52:11;;;;;;;6.95;5.03;;;10.60;99.90;;;;;;4998230;28;20065;-86
2023/04/24 03:54:36;;;;;;;7.32;5.30;;;10.60;99.90;;;;;;4979805;28;20579;-86
2023/04/24 03:57:03;;;;;;;10.00;4.97;;;10.60;99.90;;;;;;4980312;28;20038;-85
2023/04/24 03:59:28;;;;;;;6.43;4.85;;;10.60;99.90;;;;;;4981506;28;20115;-85
2023/04/24 04:01:54;;;;;;;6.38;4.85;;;10.60;99.90;;;;;;4995250;28;20177;-86
2023/04/24 04:04:20;;;;;;;6.03;4.32;;;10.60;99.90;;;;;;4997502;28;20761;-86
2023/04/24 04:06:46;;;;;;;6.22;4.40;;;10.60;99.90;;;;;;4962865;28;20050;-85
2023/04/24 04:09:12;;;;;;;6.32;4.97;;;10.50;99.90;;;;;;4981680;28;20048;-85
2023/04/24 04:11:37;;;;;;;7.65;4.70;;;10.50;99.90;;;;;;4981443;28;20066;-85
2023/04/24 04:14:03;;;;;;;6.57;4.22;;;10.50;99.90;;;;;;4999651;28;20595;-85
2023/04/24 04:16:29;;;;;;;5.65;4.18;;;10.50;99.90;;;;;;4980134;28;20698;-85
2023/04/24 04:18:55;;;;;;;5.93;4.50;;;10.50;99.90;;;;;;4980472;28;20554;-85
2023/04/24 04:21:21;;;;;;;7.78;5.05;;;10.50;99.90;;;;;;4964372;28;20144;-84
2023/04/24 04:23:46;;;;;;;7.40;5.72;;;10.50;99.90;;;;;;4981383;28;20132;-86
2023/04/24 04:26:12;;;;;;;7.28;5.45;;;10.50;99.90;;;;;;4999550;28;20045;-85
2023/04/24 04:28:39;;;;;;;7.20;5.47;;;10.50;99.90;;;;;;4981404;28;20208;-85
2023/04/24 04:31:05;;;;;;;7.45;5.45;;;10.50;99.90;;;;;;4998488;28;20046;-85
2023/04/24 04:33:30;;;;;;;6.82;5.40;;;10.50;99.90;;;;;;4965556;28;20045;-85
2023/04/24 04:35:56;;;;;;;7.97;6.03;;;10.50;99.90;;;;;;4995151;28;20220;-84
2023/04/24 04:38:22;;;;;;;7.85;6.00;;;10.40;99.90;;;;;;4998268;28;20084;-85
2023/04/24 04:40:48;;;;;;;10.27;6.13;;;10.40;99.90;;;;;;4979060;28;20107;-84
2023/04/24 04:43:15;;;;;;;9.68;6.18;;;10.40;99.90;;;;;;4997642;28;20447;-85
2023/04/24 04:45:43;;;;;;;7.75;5.72;;;10.40;99.90;;;;;;4998057;28;20046;-85
2023/04/24 04:48:09;;;;;;;7.03;5.38;;;10.40;99.90;;;;;;4981076;28;20045;-84
2023/04/24 04:50:38;;;;;;;6.65;4.72;;;10.40;99.90;;;;;;4998395;28;20819;-85
2023/04/24 04:53:03;;;;;;;8.25;5.18;;;10.40;99.90;;;;;;4998126;28;20116;-85
2023/04/24 04:55:29;;;;;;;8.65;5.28;;;10.40;99.90;;;;;;4966047;28;20455;-85
2023/04/24 04:57:56;;;;;;;6.88;5.03;;;10.40;99.90;;;;;;4998793;28;20089;-85
2023/04/24 05:00:24;;;;;;;6.63;4.55;;;10.40;99.90;;;;;;4978848;28;20052;-85
2023/04/24 05:02:49;;;;;;;5.90;4.35;;;10.40;99.90;;;;;;4980405;28;20088;-85
2023/04/24 05:05:16;;;;;;;5.63;3.50;;;10.40;99.90;;;;;;4978651;28;20581;-85
2023/04/24 05:07:42;;;;;;;5.45;3.47;;;10.40;99.90;;;;;;4995454;28;20042;-85
2023/04/24 05:10:09;;;;;;;4.75;3.08;;;10.40;99.90;;;;;;4997230;28;20068;-85
2023/04/24 05:12:34;;;;;;;3.95;2.50;;;10.40;99.90;;;;;;4979362;28;20050;-87
2023/04/24 05:15:00;;;;;;;4.57;2.53;;;10.40;99.90;;;;;;4997432;28;20061;-85
2023/04/24 05:17:25;;;;;;;3.60;1.95;;;10.60;99.90;;;;;;4996004;28;20542;-86
2023/04/24 05:19:51;;;;;;;2.30;1.50;;;10.40;99.90;;;;;;4982350;28;20038;-85
2023/04/24 05:22:18;;;;;;;5.30;1.70;;;10.40;99.90;;;;;;4975010;28;20100;-85
2023/04/24 05:24:44;;;;;;;3.97;1.48;;;10.30;99.90;;;;;;4997938;28;20050;-84
2023/04/24 05:27:10;;;;;;;2.83;1.25;;;10.30;99.90;;;;;;4979566;28;20125;-84
2023/04/24 05:29:36;;;;;;;4.30;1.50;;;10.30;99.90;;;;;;4996898;28;20052;-85
2023/04/24 05:32:01;;;;;;;2.42;1.23;;;10.30;99.90;;;;;;4999538;28;20091;-85
2023/04/24 05:34:27;;;;;;;3.22;1.63;;;10.30;99.90;;;;;;4995704;28;20056;-85
2023/04/24 05:36:53;;;;;;;3.25;1.40;;;10.30;99.90;;;;;;4995225;28;20737;-85
2023/04/24 05:39:19;;;;;;;4.60;1.45;;;10.20;99.90;;;;;;4997770;28;20049;-86
2023/04/24 05:41:45;;;;;;;3.22;1.38;;;10.20;99.90;;;;;;4962841;28;20050;-85
2023/04/24 05:44:11;;;;;;;3.65;1.60;;;10.20;99.90;;;;;;4997335;28;20049;-87
2023/04/24 05:46:39;;;;;;;2.60;1.35;;;10.20;99.90;;;;;;4962796;28;20283;-85
2023/04/24 05:49:08;;;;;;;3.20;1.30;;;10.20;99.90;;;;;;4994572;28;20553;-85
2023/04/24 05:51:36;;;;;;;3.55;1.20;;;10.20;99.90;;;;;;4999236;28;20564;-85
2023/04/24 05:54:03;;;;;;;3.00;1.30;;;10.20;99.90;;;;;;4980240;28;20045;-85
2023/04/24 05:56:29;;;;;;;2.72;1.30;;;10.20;99.90;;;;;;4980924;28;20649;-86
2023/04/24 05:59:03;;;;;;;2.80;1.48;;;10.30;99.90;;;;;;4981336;28;20045;-85
2023/04/24 06:01:29;;;;;;;2.00;1.15;;;10.70;99.90;;;;;;4981822;28;20045;-85
2023/04/24 06:03:55;;;;;;;5.45;2.97;;;10.30;99.90;;;;;;4963966;28;20040;-85
2023/04/24 06:06:20;;;;;;;3.67;2.00;;;10.30;99.90;;;;;;4979624;28;20053;-87
2023/04/24 06:08:46;;;;;;;2.88;1.63;;;10.30;99.90;;;;;;4998554;28;20050;-87
2023/04/24 06:11:12;;;;;;;4.47;1.73;;;10.40;99.90;;;;;;4979699;28;20042;-87
2023/04/24 06:13:39;;;;;;;4.50;1.40;;;10.60;99.90;;;;;;4997479;28;20062;-87
2023/04/24 06:16:05;;;;;;;2.72;1.13;;;10.40;99.90;;;;;;4976833;28;20041;-87
2023/04/24 06:18:30;;;;;;;2.70;1.30;;;10.40;99.90;;;;;;4963149;28;20046;-86
2023/04/24 06:20:56;;;;;;;2.90;1.40;;;10.50;99.90;;;;;;4998222;28;20462;-86
2023/04/24 06:23:22;;;;;;;2.15;1.13;;;10.40;99.90;;;;;;4978120;28;20457;-87
2023/04/24 06:25:47;;;;;;;2.80;1.40;;;10.50;99.90;;;;;;4977440;28;20152;-86
2023/04/24 06:28:13;;;;;;;2.33;0.98;;;10.50;99.90;;;;;;4992440;28;20096;-85
2023/04/24 06:30:41;;;;;;;2.47;1.27;;;10.50;99.90;;;;;;4996641;28;20089;-85
2023/04/24 06:33:07;;;;;;;3.08;1.40;;;10.60;99.90;;;;;;4991849;28;20046;-85
2023/04/24 06:35:33;;;;;;;4.07;1.77;;;10.70;99.90;;;;;;4993067;28;20871;-85
2023/04/24 06:38:02;;;;;;;2.13;1.25;;;10.60;99.90;;;;;;4975008;28;20669;-87
2023/04/24 06:40:30;;;;;;;3.22;1.60;;;10.60;99.90;;;;;;4990150;28;20121;-86
2023/04/24 06:42:57;;;;;;;3.85;1.35;;;10.70;99.90;;;;;;4994893;28;20500;-86
2023/04/24 06:45:26;;;;;;;3.67;1.80;;;10.70;99.90;;;;;;4963650;28;20041;-86
2023/04/24 06:47:54;;;;;;;6.35;1.90;;;10.80;99.90;;;;;;4963797;28;20061;-86
2023/04/24 06:50:20;;;;;;;4.32;2.28;;;11.10;99.90;;;;;;4981929;28;20085;-87
2023/04/24 06:52:45;;;;;;;4.90;2.00;;;10.80;99.90;;;;;;4982508;28;20132;-85
2023/04/24 06:55:11;;;;;;;5.32;2.80;;;10.80;99.90;;;;;;4981892;28;20046;-87
2023/04/24 06:57:37;;;;;;;5.63;2.58;;;10.90;99.90;;;;;;4957743;28;20046;-86
2023/04/24 07:00:06;;;;;;;7.55;3.00;;;10.90;99.90;;;;;;4982373;28;20053;-86
2023/04/24 07:02:32;;;;;;;6.25;3.03;;;10.90;99.90;;;;;;4955249;28;20049;-85
2023/04/24 07:04:57;;;;;;;6.47;3.65;;;10.90;99.90;;;;;;4983268;28;20099;-86
2023/04/24 07:07:23;;;;;;;6.78;3.20;;;10.90;99.90;;;;;;4982809;28;20046;-85
2023/04/24 07:09:50;;;;;;;6.15;2.92;;;10.90;99.90;;;;;;4978958;28;20042;-86
2023/04/24 07:12:16;;;;;;;7.10;3.00;;;11.00;99.90;;;;;;4998446;28;20046;-86
2023/04/24 07:14:43;;;;;;;6.28;3.22;;;11.10;99.90;;;;;;4964988;28;20049;-86
2023/04/24 07:17:08;;;;;;;7.85;4.13;;;11.00;99.90;;;;;;4997536;28;20069;-87
2023/04/24 07:19:37;;;;;;;7.30;3.38;;;11.00;99.90;;;;;;4981075;28;20172;-88
2023/04/24 07:22:03;;;;;;;5.65;3.17;;;11.00;99.90;;;;;;4997745;28;20065;-87
2023/04/24 07:24:29;;;;;;;5.93;3.22;;;10.90;99.90;;;;;;4982321;28;20156;-92
2023/04/24 07:26:58;;;;;;;6.68;2.63;;;11.00;99.90;;;;;;4976113;28;20056;-91
2023/04/24 07:29:24;;;;;;;6.13;2.10;;;10.90;99.90;;;;;;4986235;28;20102;-91
2023/04/24 07:31:50;;;;;;;4.22;1.95;;;10.90;99.90;;;;;;5004839;28;20112;-92
2023/04/24 07:34:19;;;;;;;3.45;1.65;;;11.30;99.90;;;;;;4987192;28;21074;-91
2023/04/24 07:36:46;;;;;;;5.40;1.92;;;10.70;99.90;;;;;;4971991;28;20050;-92
2023/04/24 07:39:14;;;;;;;6.03;1.70;;;10.90;99.90;;;;;;4971797;28;20053;-90
2023/04/24 07:41:42;;;;;;;3.90;1.75;;;11.00;99.90;;;;;;4973096;28;20065;-90
2023/04/24 07:44:08;;;;;;;3.97;1.88;;;11.20;99.90;;;;;;4970405;28;20419;-91
2023/04/24 07:46:34;;;;;;;2.97;1.48;;;10.90;99.90;;;;;;4988059;28;20157;-91
2023/04/24 07:49:11;;;;;;;4.20;1.90;;;10.90;99.90;;;;;;5005304;28;20045;-91
2023/04/24 07:51:52;;;;;;;3.60;1.65;;;11.20;99.90;;;;;;4986990;28;20060;-91
2023/04/24 07:54:20;;;;;;;4.07;1.65;;;11.00;99.90;;;;;;4985708;28;20073;-92
2023/04/24 07:56:46;;;;;;;4.57;1.58;;;11.30;99.90;;;;;;4977217;28;20087;-91
2023/04/24 07:59:12;;;;;;;3.78;1.73;;;11.00;99.90;;;;;;4987073;28;20751;-92
2023/04/24 08:01:49;;;;;;;6.65;1.50;;;11.90;99.90;;;;;;4968598;28;20060;-91
2023/04/24 08:04:17;;;;;;;4.43;1.70;;;11.30;99.90;;;;;;4969868;28;20389;-91
2023/04/24 08:06:43;;;;;;;3.83;1.75;;;11.00;99.90;;;;;;4997711;28;20127;-91
2023/04/24 08:09:09;;;;;;;7.25;2.05;;;11.40;99.90;;;;;;4971444;28;20034;-91
2023/04/24 08:11:35;;;;;;;5.25;2.08;;;10.90;99.90;;;;;;4988461;28;20041;-91
2023/04/24 08:14:03;;;;;;;4.72;1.55;;;10.90;99.90;;;;;;5004503;28;20134;-91
2023/04/24 08:16:29;;;;;;;4.10;1.70;;;10.90;99.90;;;;;;4970532;28;20042;-91
2023/04/24 08:18:57;;;;;;;5.97;1.95;;;10.90;99.90;;;;;;4986990;28;20037;-91
2023/04/24 08:21:30;;;;;;;7.50;2.58;;;10.90;99.90;;;;;;4993832;28;20045;-92
2023/04/24 08:23:55;;;;;;;6.75;3.38;;;10.90;99.90;;;;;;5004399;28;20041;-91
2023/04/24 08:26:21;;;;;;;9.65;4.32;;;10.90;99.90;;;;;;4988107;28;20046;-92
2023/04/24 08:28:48;;;;;;;11.23;4.68;;;10.80;99.90;;;;;;5005696;28;20050;-90
2023/04/24 08:31:14;;;;;;;9.30;4.68;;;10.80;99.90;;;;;;4984411;28;20049;-91
2023/04/24 08:33:40;;;;;;;9.43;5.50;;;11.50;99.90;;;;;;4963741;28;20046;-91
2023/04/24 08:36:09;;;;;;;13.82;6.63;;;10.80;99.90;;;;;;4985695;28;20044;-90
2023/04/24 08:38:35;;;;;;;14.40;7.32;;;11.10;99.90;;;;;;4971158;28;20292;-91
2023/04/24 08:41:01;;;;;;;17.67;7.72;;;10.50;99.90;;;;;;5005326;28;20829;-90
2023/04/24 08:43:27;;;;;;;20.20;9.18;;;10.70;99.90;;;;;;4987121;28;20042;-90
2023/04/24 08:45:55;;;;;;;19.38;9.38;;;10.70;99.90;;;;;;4973770;28;20108;-90
2023/04/24 08:48:22;;;;;;;12.50;8.32;;;11.10;99.90;;;;;;4990119;28;20060;-90
2023/04/24 08:50:51;;;;;;;19.77;10.52;;;10.70;99.90;;;;;;4973519;28;20042;-90
2023/04/24 08:53:18;;;;;;;16.60;9.27;;;11.00;99.90;;;;;;4963740;28;20046;-90
2023/04/24 08:55:47;;;;;;;17.42;9.30;;;10.70;99.90;;;;;;4988455;28;20546;-91
2023/04/24 08:58:14;;;;;;;19.25;9.80;;;10.60;99.90;;;;;;4983302;28;20148;-91
2023/04/24 09:00:46;;;;;;;20.20;9.93;;;10.90;99.90;;;;;;4985146;28;20092;-90
2023/04/24 09:03:16;;;;;;;22.00;10.88;;;10.60;99.90;;;;;;4988113;28;21419;-85
2023/04/24 09:05:50;;;;;;;17.92;10.15;;;10.60;99.90;;;;;;4971806;28;20046;-90
2023/04/24 09:08:19;;;;;;;17.00;10.50;;;10.60;99.90;;;;;;4989943;28;20120;-91
2023/04/24 09:10:45;;;;;;;15.90;9.35;;;10.50;99.90;;;;;;4988141;28;20137;-89
2023/04/24 09:13:11;;;;;;;18.50;10.65;;;10.50;99.90;;;;;;5003610;28;20049;-90
2023/04/24 09:15:41;;;;;;;20.15;11.30;;;10.50;99.90;;;;;;4968959;28;20794;-88
2023/04/24 09:18:06;;;;;;;17.85;10.68;;;10.50;99.90;;;;;;5001615;28;20046;-89
2023/04/24 09:20:33;;;;;;;20.23;11.23;;;10.40;99.90;;;;;;4992446;28;20056;-91
2023/04/24 09:22:59;;;;;;;18.75;9.88;;;10.40;99.90;;;;;;4968122;28;20065;-87
2023/04/24 09:25:32;;;;;;;19.25;10.88;;;10.40;99.90;;;;;;4984430;28;20064;-88
2023/04/24 09:28:03;;;;;;;18.90;9.88;;;10.40;99.90;;;;;;5003177;28;20046;-87
2023/04/24 09:30:29;;;;;;;18.23;10.50;;;10.50;99.90;;;;;;5002787;28;20038;-89
2023/04/24 09:33:15;;;;;;;16.83;10.20;;;10.70;99.90;;;;;;4983935;28;20538;-87
2023/04/24 09:35:51;;;;;;;19.60;9.90;;;10.40;99.90;;;;;;4981466;28;20056;-88
2023/04/24 09:38:30;;;;;;;17.90;8.93;;;10.60;99.90;;;;;;4966733;28;20052;-88
2023/04/24 09:40:58;;;;;;;14.90;8.27;;;10.50;99.90;;;;;;4967582;28;20118;-88
2023/04/24 09:43:26;;;;;;;15.00;9.35;;;10.40;99.90;;;;;;4982931;28;20124;-88
2023/04/24 09:45:56;;;;;;;13.32;7.97;;;10.40;99.90;;;;;;4978419;28;20127;-89
2023/04/24 09:48:36;;;;;;;13.43;7.95;;;10.50;99.90;;;;;;4998998;28;20034;-88
2023/04/24 09:51:03;;;;;;;13.60;8.95;;;10.40;99.90;;;;;;5000037;28;20034;-88
2023/04/24 09:53:30;;;;;;;15.52;7.13;;;10.40;99.90;;;;;;4999941;28;20400;-88
2023/04/24 09:56:02;;;;;;;12.80;7.72;;;10.40;99.90;;;;;;4965882;28;20069;-88
2023/04/24 09:58:29;;;;;;;13.32;7.95;;;10.40;99.90;;;;;;5001538;28;20483;-88
2023/04/24 10:00:56;;;;;;;12.43;8.02;;;10.40;99.90;;;;;;4981776;28;20046;-88
2023/04/24 10:03:26;;;;;;;13.77;7.55;;;10.30;99.90;;;;;;4983139;28;20449;-88
2023/04/24 10:05:52;;;;;;;12.82;6.95;;;10.30;99.90;;;;;;4983257;28;20125;-88
2023/04/24 10:08:19;;;;;;;13.30;7.47;;;10.30;99.90;;;;;;4953163;28;20756;-88
2023/04/24 10:10:46;;;;;;;15.43;7.22;;;10.60;99.90;;;;;;4980089;28;20078;-88
2023/04/24 10:13:14;;;;;;;12.60;6.75;;;10.30;99.90;;;;;;4979059;28;20642;-88
2023/04/24 10:15:41;;;;;;;16.40;6.82;;;10.40;99.90;;;;;;4979438;28;20046;-87
2023/04/24 10:18:08;;;;;;;14.90;6.22;;;10.40;99.90;;;;;;4998366;28;20496;-88
2023/04/24 10:20:35;;;;;;;12.95;6.05;;;10.60;99.90;;;;;;4964934;28;20050;-87
2023/04/24 10:23:01;;;;;;;12.48;6.57;;;10.50;99.90;;;;;;4999026;28;20503;-87
2023/04/24 10:25:30;;;;;;;13.52;6.00;;;10.50;99.90;;;;;;4995218;28;20108;-87
2023/04/24 10:27:59;;;;;;;10.52;4.80;;;10.50;99.90;;;;;;4980896;28;20045;-87
2023/04/24 10:30:28;;;;;;;13.07;5.20;;;10.60;99.90;;;;;;4980298;28;20476;-88
2023/04/24 10:32:54;;;;;;;11.43;5.05;;;10.60;99.90;;;;;;4979195;28;20085;-87
2023/04/24 10:35:22;;;;;;;10.02;4.90;;;10.60;99.90;;;;;;4951893;28;20133;-88
2023/04/24 10:38:07;;;;;;;12.32;4.70;;;10.60;99.90;;;;;;4976985;28;20662;-89
2023/04/24 10:40:35;;;;;;;8.80;3.88;;;10.60;99.90;;;;;;4983388;28;20153;-90
2023/04/24 10:43:07;;;;;;;10.60;3.20;;;10.60;99.90;;;;;;4995407;28;20038;-90
2023/04/24 10:45:33;;;;;;;10.90;4.15;;;10.60;99.90;;;;;;4982380;28;20046;-89
2023/04/24 10:48:02;;;;;;;11.27;4.22;;;10.60;99.90;;;;;;4982069;28;20045;-91
2023/04/24 10:50:30;;;;;;;13.00;4.20;;;10.60;99.90;;;;;;5000780;28;20038;-90
2023/04/24 10:53:07;;;;;;;9.38;3.58;;;11.20;99.90;;;;;;4981427;28;20045;-91
2023/04/24 10:55:44;;;;;;;8.65;3.92;;;10.60;99.90;;;;;;4983104;28;20041;-90
2023/04/24 10:58:11;;;;;;;10.40;3.50;;;10.60;99.90;;;;;;4983536;28;20042;-90
2023/04/24 11:00:38;;;;;;;7.93;3.30;;;10.60;99.90;;;;;;4981855;28;20084;-90
2023/04/24 11:03:06;;;;;;;9.27;3.08;;;10.70;99.90;;;;;;4964933;28;20089;-88
2023/04/24 11:05:56;;;;;;;7.40;2.55;;;10.70;99.90;;;;;;4970852;28;20118;-89
2023/04/24 11:08:32;;;;;;;10.73;2.58;;;10.60;99.90;;;;;;4983212;28;20041;-90
2023/04/24 11:11:12;;;;;;;7.38;2.58;;;10.60;99.90;;;;;;4978873;28;20048;-89
2023/04/24 11:13:54;;;;;;;6.70;2.40;;;10.60;99.90;;;;;;4960846;28;20046;-90
2023/04/24 11:16:41;;;;;;;8.15;2.33;;;10.70;99.90;;;;;;4978529;28;20054;-89
2023/04/24 11:19:16;;;;;;;9.52;2.88;;;10.70;99.90;;;;;;4968226;28;20061;-89
2023/04/24 11:21:55;;;;;;;8.27;2.28;;;10.70;99.90;;;;;;4978977;28;20050;-89
2023/04/24 11:24:28;;;;;;;7.47;2.10;;;10.60;99.90;;;;;;4980652;28;20269;-89
2023/04/24 11:26:57;;;;;;;5.95;2.20;;;10.60;99.90;;;;;;4998989;28;20046;-88
2023/04/24 11:29:37;;;;;;;7.65;2.17;;;10.60;99.90;;;;;;5001056;28;20049;-90
2023/04/24 11:32:19;;;;;;;6.50;2.22;;;10.90;99.90;;;;;;5002453;28;20034;-89
2023/04/24 11:34:58;;;;;;;9.38;2.58;;;10.50;99.90;;;;;;4984859;28;20052;-89
2023/04/24 11:37:38;;;;;;;15.25;2.35;;;10.50;99.90;;;;;;5003140;28;20053;-90
2023/04/24 11:40:06;;;;;;;6.43;1.98;;;10.50;99.90;;;;;;4982649;28;20512;-90
2023/04/24 11:42:36;;;;;;;7.13;2.10;;;10.50;99.90;;;;;;4985627;28;20084;-90
2023/04/24 11:45:06;;;;;;;9.38;2.17;;;11.00;99.90;;;;;;4971189;28;20069;-90
2023/04/24 11:47:35;;;;;;;8.98;2.00;;;10.50;99.90;;;;;;5004152;28;20053;-89
2023/04/24 11:50:02;;;;;;;4.72;1.52;;;10.70;99.90;;;;;;4987117;28;20042;-91
2023/04/24 11:52:28;;;;;;;7.10;1.58;;;10.90;99.90;;;;;;4986182;28;20029;-90
2023/04/24 11:54:54;;;;;;;5.28;1.80;;;10.60;99.90;;;;;;4968974;28;20061;-90
2023/04/24 11:57:21;;;;;;;6.00;1.92;;;10.70;99.90;;;;;;4968108;28;20041;-89
2023/04/24 11:59:47;;;;;;;8.23;1.88;;;10.70;99.90;;;;;;4971996;28;20145;-89
2023/04/24 12:02:26;;;;;;;5.68;1.88;;;10.70;99.90;;;;;;4984677;28;20233;-90
2023/04/24 12:04:55;;;;;;;6.38;2.17;;;10.70;99.90;;;;;;5002316;28;20053;-88
2023/04/24 12:07:22;;;;;;;5.25;1.50;;;11.00;99.90;;;;;;4984638;28;20038;-89
2023/04/24 12:09:54;;;;;;;4.68;1.50;;;10.60;99.90;;;;;;4984777;28;20755;-89
2023/04/24 12:12:20;;;;;;;6.72;1.70;;;10.70;99.90;;;;;;5001619;28;20045;-91
2023/04/24 12:14:52;;;;;;;9.73;2.00;;;10.50;99.90;;;;;;4966986;28;20128;-90
2023/04/24 12:17:23;;;;;;;7.07;1.92;;;10.40;99.90;;;;;;4984197;28;20049;-89
2023/04/24 12:19:50;;;;;;;10.73;1.73;;;10.80;99.90;;;;;;4984746;28;20609;-89
2023/04/24 12:22:16;;;;;;;7.70;1.70;;;10.40;99.90;;;;;;4984275;28;20050;-88
2023/04/24 12:25:12;;;;;;;8.13;1.50;;;10.40;99.90;;;;;;4988601;28;20034;-89
2023/04/24 12:27:38;;;;;;;6.03;1.25;;;10.30;99.90;;;;;;4985688;28;20057;-89
2023/04/24 12:30:05;;;;;;;5.95;1.48;;;10.40;99.90;;;;;;4984499;28;20038;-88
2023/04/24 12:32:32;;;;;;;9.50;1.30;;;10.40;99.90;;;;;;4990681;28;20076;-88
2023/04/24 12:34:58;;;;;;;6.72;1.95;;;10.40;99.90;;;;;;4975543;28;20058;-89
2023/04/24 12:37:33;;;;;;;5.88;1.85;;;10.40;99.90;;;;;;4983685;28;20121;-89
2023/04/24 12:40:18;;;;;;;5.57;1.45;;;10.50;99.90;;;;;;5000328;28;20056;-89
2023/04/24 12:42:51;;;;;;;6.05;1.60;;;10.70;99.90;;;;;;4997260;28;20042;-88
2023/04/24 12:45:18;;;;;;;4.10;1.30;;;10.50;99.90;;;;;;4979139;28;20515;-87
2023/04/24 12:47:45;;;;;;;4.95;1.35;;;10.50;99.90;;;;;;4966391;28;20057;-88